South Charleston, OH (45368)

2:28 AM EDT on September 01, 2016 (GMT -0400)
Walnut Hill | | Change Station

Elev 1078 ft 39.84 °N, 83.73 °W | Updated 8 seconds ago

Mostly Cloudy
Mostly Cloudy
68.2 °F
Feels Like 68.2 °F
N
0.0
Wind Variable Wind from NW
Gusts 0.0 mph

Today
High -- | Low -- °F
--% Chance of Precip.
Yesterday
High -- | Low -- °F
Precip. -- in
Pressure 29.98 in
Visibility 10.0 miles
Clouds Few 1400 ft
Mostly Cloudy 4200 ft
Dew Point 63 °F
Humidity 84%
Rainfall 0.00 in
Snow Depth Not available.
7:03 AM 8:05 PM
Waning Crescent, 0% visible
METAR KSGH 010556Z AUTO 04013KT 10SM FEW014 BKN042 21/18 A3001 RMK AO2 SLP151 T02060178 10233 20206 53001
Pressure 29.98 in
Visibility 10.0 miles
Clouds Few 1400 ft
Mostly Cloudy 4200 ft
Dew Point 63 °F
Humidity 84%
Rainfall 0.00 in
Snow Depth Not available.
7:03 AM 8:05 PM
Waning Crescent, 0% visible
METAR KSGH 010556Z AUTO 04013KT 10SM FEW014 BKN042 21/18 A3001 RMK AO2 SLP151 T02060178 10233 20206 53001

10-Day Weather Forecast

Almanac

Astronomy

Sep. 01, 2016 Rise Set
Actual Time
Civil Twilight
Nautical Twilight
Astronomical Twilight
Moon
Length of Visible Light
Length of Day
Tomorrow will be .
, % of the Moon is Illuminated

Today's Extremes

State Highs State Lows

Community

WunderPhotos

Upload Photos

1,936,313 photos uploaded!

WunderBlog® & News

Nearby

Air Quality

  Air Quality AQ Index Pollutant
Not available.

Snow Depth

Station Depth Elevation

Earthquake Activity

City Distance Mag. Time & Date
Minimum magnitude displayed is 2.5.

Coastal Water Temperatures

Place Temperature

Stations

Nearby Weather Stations

Station Location Temp. Windchill Dew Point Humidity Wind Precip. Elev Updated Type
                   

Watches & Warnings

There are currently no watches in effect.